Luseland, Canada
Current Conditions -  °F | °C
As of 9:28 PM on Tuesday 21 Oct 2014 (Local Time) from CYKY Reporting Station
Rain Showers Rain Showers  
Wind Chill: 50°   Ceiling: 5000
Heat Index: 50°   Visibility: 15mi
Dew Point: 45°   Wind: 12mph
Humidity: 82%   Direction: 310°NW
Pressure: 29.66"   Gusts: 18mph
Location:  52.08°N, 109.43°W
Report Text: CYKY 220328Z 31010G16KT 15SM -SHRA OVC050 10/07 A2966 RMK SC8 CVCTV CLD EMBD SLP055 DENSITY ALT 2500FT
Loading
Personal Weather Stations






























Interactive Weather Map
Tropical Storm Tracking
New forecast layout! Learn more

10-Day Weather Forecast

Advertisements
Track Severe Weather on mobile